createdAt,value
2019-02-25T00:00:49.168Z,10.93
2019-02-25T00:03:17.731Z,10.43
2019-02-25T00:05:49.629Z,9.97
2019-02-25T00:08:18.134Z,10.20
2019-02-25T00:10:46.584Z,11.10
2019-02-25T00:13:15.133Z,10.10
2019-02-25T00:15:43.646Z,10.67
2019-02-25T00:18:12.120Z,9.50
2019-02-25T00:20:40.573Z,10.33
2019-02-25T00:23:09.060Z,10.03
2019-02-25T00:25:37.521Z,10.90
2019-02-25T00:28:06.011Z,10.43
2019-02-25T00:30:34.438Z,10.57
2019-02-25T00:33:02.900Z,9.87
2019-02-25T00:35:31.377Z,10.43
2019-02-25T00:37:59.871Z,10.00
2019-02-25T00:40:28.325Z,11.17
2019-02-25T00:42:56.792Z,10.53
2019-02-25T00:45:25.372Z,10.00
2019-02-25T00:47:53.762Z,10.53
2019-02-25T00:50:22.275Z,10.10
2019-02-25T00:52:50.827Z,9.93
2019-02-25T00:55:19.289Z,10.53
2019-02-25T00:57:47.744Z,10.07
2019-02-25T01:00:16.221Z,11.17
2019-02-25T01:02:44.719Z,11.07
2019-02-25T01:05:13.560Z,11.50
2019-02-25T01:07:42.078Z,11.40
2019-02-25T01:10:10.688Z,12.03
2019-02-25T01:12:39.122Z,11.80
2019-02-25T01:15:07.777Z,12.63
2019-02-25T01:17:36.176Z,12.63
2019-02-25T01:20:04.669Z,11.93
2019-02-25T01:22:33.060Z,12.90
2019-02-25T01:25:01.556Z,12.10
2019-02-25T01:27:30.011Z,12.93
2019-02-25T01:29:58.469Z,11.33
2019-02-25T01:32:26.978Z,12.70
2019-02-25T01:34:55.448Z,12.43
2019-02-25T01:37:23.912Z,12.30
2019-02-25T01:39:52.328Z,12.30
2019-02-25T01:42:20.812Z,13.30
2019-02-25T01:44:49.438Z,13.67
2019-02-25T01:47:17.884Z,13.20
2019-02-25T01:49:46.319Z,14.10
2019-02-25T01:52:34.003Z,13.33
2019-02-25T01:55:02.353Z,13.53
2019-02-25T01:57:30.700Z,14.50
2019-02-25T01:59:59.180Z,14.90
2019-02-25T02:02:27.519Z,15.47
2019-02-25T02:04:55.972Z,16.63
2019-02-25T02:07:24.348Z,16.07
2019-02-25T02:09:52.715Z,17.27
2019-02-25T02:12:21.107Z,15.97
2019-02-25T02:14:49.479Z,16.03
2019-02-25T02:17:17.853Z,15.33
2019-02-25T02:19:48.923Z,15.77
2019-02-25T02:22:17.307Z,16.37
2019-02-25T02:24:45.735Z,15.13
2019-02-25T02:27:14.215Z,16.67
2019-02-25T02:29:42.740Z,16.90
2019-02-25T02:32:11.204Z,14.07
2019-02-25T02:34:39.651Z,15.07
2019-02-25T02:37:08.027Z,15.13
2019-02-25T02:39:36.392Z,15.17
2019-02-25T02:42:11.834Z,13.90
2019-02-25T02:44:40.407Z,14.67
2019-02-25T02:47:28.265Z,14.47
2019-02-25T02:49:56.698Z,14.20
2019-02-25T02:52:25.163Z,14.80
2019-02-25T02:54:53.729Z,15.20
2019-02-25T02:57:22.159Z,14.40
2019-02-25T02:59:50.550Z,14.70
2019-02-25T03:02:19.008Z,14.53
2019-02-25T03:04:47.570Z,15.10
2019-02-25T03:07:15.924Z,14.43
2019-02-25T03:09:44.295Z,14.37
2019-02-25T03:12:12.712Z,15.40
2019-02-25T03:14:41.217Z,14.10
2019-02-25T03:17:09.565Z,14.97
2019-02-25T03:19:38.040Z,15.57
2019-02-25T03:22:06.558Z,15.97
2019-02-25T03:24:35.014Z,14.90
2019-02-25T03:27:03.444Z,14.50
2019-02-25T03:29:31.835Z,13.07
2019-02-25T03:32:00.218Z,13.80
2019-02-25T03:34:28.546Z,14.37
2019-02-25T03:36:56.985Z,14.27
2019-02-25T03:39:25.416Z,14.47
2019-02-25T03:41:53.855Z,13.60
2019-02-25T03:44:22.343Z,14.90
2019-02-25T03:46:50.796Z,15.10
2019-02-25T03:49:19.151Z,13.83
2019-02-25T03:51:47.533Z,13.80
2019-02-25T03:54:15.912Z,14.90
2019-02-25T03:56:44.359Z,14.63
2019-02-25T03:59:12.808Z,14.20
2019-02-25T04:01:41.271Z,14.13
2019-02-25T04:04:09.819Z,14.73
2019-02-25T04:06:38.303Z,15.40
2019-02-25T04:09:07.456Z,14.17
2019-02-25T04:11:35.783Z,15.50
2019-02-25T04:14:04.324Z,14.00
2019-02-25T04:16:32.999Z,15.97
2019-02-25T04:19:01.473Z,15.10
2019-02-25T04:21:30.323Z,14.50
2019-02-25T04:23:58.687Z,14.73
2019-02-25T04:26:27.165Z,14.50
2019-02-25T04:28:55.525Z,13.70
2019-02-25T04:31:23.906Z,13.77
2019-02-25T04:33:52.271Z,14.50
2019-02-25T04:36:20.627Z,13.80
2019-02-25T04:38:49.064Z,13.00
2019-02-25T04:41:17.416Z,13.93
2019-02-25T04:43:45.788Z,14.70
2019-02-25T04:46:14.158Z,13.27
2019-02-25T04:48:42.604Z,12.80
2019-02-25T04:51:11.043Z,13.77
2019-02-25T04:53:39.391Z,14.33
2019-02-25T04:56:08.331Z,14.03
2019-02-25T04:58:36.871Z,14.63
2019-02-25T05:01:05.288Z,13.70
2019-02-25T05:03:33.863Z,14.03
2019-02-25T05:06:02.256Z,13.50
2019-02-25T05:08:30.723Z,13.17
2019-02-25T05:10:59.076Z,13.13
2019-02-25T05:13:27.411Z,12.87
2019-02-25T05:15:55.751Z,14.67
2019-02-25T05:18:24.116Z,14.70
2019-02-25T05:20:52.648Z,13.93
2019-02-25T05:23:21.040Z,13.30
2019-02-25T05:25:49.505Z,14.53
2019-02-25T05:28:17.941Z,14.53
2019-02-25T05:30:46.309Z,15.10
2019-02-25T05:33:14.809Z,15.80
2019-02-25T05:35:43.163Z,14.20
2019-02-25T05:38:11.636Z,13.37
2019-02-25T05:40:40.088Z,16.42
2019-02-25T05:43:08.580Z,14.20
2019-02-25T05:45:36.948Z,13.83
2019-02-25T05:48:05.397Z,15.40
2019-02-25T05:50:33.835Z,14.27
2019-02-25T05:53:02.327Z,13.37
2019-02-25T05:55:30.719Z,12.30
2019-02-25T05:57:59.144Z,12.60
2019-02-25T06:00:28.227Z,13.30
2019-02-25T06:02:56.700Z,12.83
2019-02-25T06:05:25.186Z,12.13
2019-02-25T06:07:53.553Z,11.17
2019-02-25T06:10:21.963Z,11.50
2019-02-25T06:12:50.329Z,11.03
2019-02-25T06:15:18.782Z,13.17
2019-02-25T06:17:47.587Z,11.97
2019-02-25T06:20:16.118Z,13.23
2019-02-25T06:22:44.564Z,11.50
2019-02-25T06:25:13.152Z,12.00
2019-02-25T06:27:41.659Z,11.50
2019-02-25T06:30:11.544Z,11.13
2019-02-25T06:32:39.923Z,12.03
2019-02-25T06:35:08.400Z,10.80
2019-02-25T06:37:36.797Z,11.97
2019-02-25T06:40:05.573Z,10.07
2019-02-25T06:42:34.017Z,12.17
2019-02-25T06:45:02.464Z,13.97
2019-02-25T06:47:31.049Z,12.37
2019-02-25T06:49:59.424Z,13.37
2019-02-25T06:52:27.872Z,12.63
2019-02-25T06:54:56.256Z,12.57
2019-02-25T06:57:24.698Z,13.47
2019-02-25T06:59:53.195Z,12.17
2019-02-25T07:02:21.624Z,12.20
2019-02-25T07:04:55.847Z,11.67
2019-02-25T07:07:42.436Z,11.60
2019-02-25T07:10:33.057Z,12.37
2019-02-25T07:13:09.647Z,11.60
2019-02-25T07:15:49.787Z,11.57
2019-02-25T07:18:25.547Z,12.30
2019-02-25T07:21:11.919Z,11.93
2019-02-25T07:24:05.605Z,12.13
2019-02-25T07:27:02.242Z,14.47
2019-02-25T07:29:40.025Z,13.40
2019-02-25T07:32:18.846Z,15.43
2019-02-25T07:34:53.573Z,14.33
2019-02-25T07:37:44.592Z,15.20
2019-02-25T07:40:20.172Z,13.77
2019-02-25T07:42:59.571Z,13.00
2019-02-25T07:45:40.983Z,12.23
2019-02-25T07:48:20.601Z,12.60
2019-02-25T07:51:11.007Z,12.43
2019-02-25T07:53:52.545Z,11.23
2019-02-25T07:56:35.155Z,11.17
2019-02-25T07:59:10.075Z,11.13
2019-02-25T08:02:15.915Z,11.23
2019-02-25T08:05:03.545Z,10.40
2019-02-25T08:07:47.567Z,10.43
2019-02-25T08:10:25.047Z,11.17
2019-02-25T08:13:27.795Z,11.10
2019-02-25T08:16:14.300Z,10.47
2019-02-25T08:19:10.734Z,11.20
2019-02-25T08:21:58.327Z,12.93
2019-02-25T08:24:41.318Z,13.10
2019-02-25T08:27:16.157Z,13.97
2019-02-25T08:30:03.460Z,11.80
2019-02-25T08:32:47.502Z,12.77
2019-02-25T08:35:34.862Z,11.90
2019-02-25T08:38:20.935Z,11.77
2019-02-25T08:41:12.131Z,11.73
2019-02-25T08:43:48.823Z,12.57
2019-02-25T08:46:31.388Z,13.00
2019-02-25T08:49:15.797Z,13.03
2019-02-25T08:51:44.300Z,11.70
2019-02-25T08:54:12.776Z,12.33
2019-02-25T08:56:41.378Z,11.60
2019-02-25T08:59:09.951Z,11.87
2019-02-25T09:01:38.527Z,12.17
2019-02-25T09:04:07.016Z,11.53
2019-02-25T09:06:35.435Z,11.23
2019-02-25T09:09:04.870Z,12.27
2019-02-25T09:11:33.387Z,11.63
2019-02-25T09:14:01.943Z,10.40
2019-02-25T09:16:30.528Z,9.83
2019-02-25T09:18:59.075Z,10.30
2019-02-25T09:21:31.827Z,9.93
2019-02-25T09:23:57.684Z,10.27
2019-02-25T09:26:26.094Z,9.73
2019-02-25T09:28:54.513Z,10.37
2019-02-25T09:31:23.020Z,10.20
2019-02-25T09:33:51.636Z,9.80
2019-02-25T09:36:20.025Z,9.80
2019-02-25T09:38:48.528Z,10.27
2019-02-25T09:41:16.973Z,8.97
2019-02-25T09:43:45.403Z,9.23
2019-02-25T09:46:13.928Z,9.63
2019-02-25T09:48:42.484Z,9.73
2019-02-25T09:51:11.402Z,8.77
2019-02-25T09:53:40.138Z,9.63
2019-02-25T09:56:08.682Z,9.40
2019-02-25T09:58:37.167Z,9.83
2019-02-25T10:01:05.687Z,10.13
2019-02-25T10:03:34.282Z,8.57
2019-02-25T10:06:02.774Z,7.67
2019-02-25T10:08:31.191Z,9.40
2019-02-25T10:10:59.727Z,8.67
2019-02-25T10:13:28.228Z,8.80
2019-02-25T10:15:56.715Z,8.90
2019-02-25T10:18:25.139Z,8.00
2019-02-25T10:20:53.704Z,8.20
2019-02-25T10:23:22.234Z,8.07
2019-02-25T10:25:50.735Z,8.00
2019-02-25T10:28:19.241Z,8.23
2019-02-25T10:30:52.935Z,8.17
2019-02-25T10:33:17.899Z,7.40
2019-02-25T10:35:46.303Z,7.20
2019-02-25T10:38:14.762Z,7.37
2019-02-25T10:40:44.973Z,6.90
2019-02-25T10:43:13.571Z,6.93
2019-02-25T10:45:43.405Z,7.10
2019-02-25T10:48:12.205Z,6.90
2019-02-25T10:50:40.979Z,8.13
2019-02-25T10:53:10.907Z,8.13
2019-02-25T10:55:45.053Z,9.70
2019-02-25T10:58:12.263Z,7.47
2019-02-25T11:00:41.728Z,7.50
2019-02-25T11:03:12.875Z,8.33
2019-02-25T11:05:41.275Z,7.93
2019-02-25T11:08:13.733Z,8.33
2019-02-25T11:10:57.299Z,7.77
2019-02-25T11:13:27.442Z,8.40
2019-02-25T11:15:55.969Z,9.60
2019-02-25T11:18:26.682Z,8.73
2019-02-25T11:20:54.718Z,9.50
2019-02-25T11:23:23.161Z,8.83
2019-02-25T11:25:53.546Z,8.87
2019-02-25T11:28:25.909Z,7.43
2019-02-25T11:30:53.769Z,8.33
2019-02-25T11:33:23.217Z,8.30
2019-02-25T11:35:52.658Z,8.40
2019-02-25T11:38:21.145Z,7.83
2019-02-25T11:40:49.608Z,7.47
2019-02-25T11:43:18.922Z,8.23
2019-02-25T11:45:48.572Z,8.37
2019-02-25T11:48:16.987Z,7.37
2019-02-25T11:50:45.543Z,8.13
2019-02-25T11:53:14.067Z,7.70
2019-02-25T11:55:42.550Z,7.53
2019-02-25T11:58:10.945Z,6.87
2019-02-25T12:00:39.926Z,6.97
2019-02-25T12:03:08.435Z,7.70
2019-02-25T12:05:36.903Z,7.63
2019-02-25T12:08:05.475Z,6.77
2019-02-25T12:10:33.954Z,6.80
2019-02-25T12:13:02.371Z,7.23
2019-02-25T12:15:30.848Z,6.90
2019-02-25T12:17:59.382Z,6.77
2019-02-25T12:20:27.797Z,7.20
2019-02-25T12:22:56.303Z,6.60
2019-02-25T12:25:24.965Z,7.23
2019-02-25T12:27:53.459Z,7.90
2019-02-25T12:30:22.036Z,7.13
2019-02-25T12:32:50.531Z,7.30
2019-02-25T12:35:19.037Z,5.70
2019-02-25T12:37:47.631Z,6.17
2019-02-25T12:40:16.841Z,6.13
2019-02-25T12:42:45.554Z,7.03
2019-02-25T12:45:14.230Z,6.93
2019-02-25T12:47:42.760Z,7.33
2019-02-25T12:50:11.315Z,7.40
2019-02-25T12:52:39.968Z,6.87
2019-02-25T12:55:09.093Z,7.70
2019-02-25T12:57:37.616Z,8.00
2019-02-25T13:00:07.124Z,7.37
2019-02-25T13:02:35.565Z,7.50
2019-02-25T13:05:04.594Z,7.70
2019-02-25T13:07:33.089Z,7.47
2019-02-25T13:10:20.760Z,7.43
2019-02-25T13:12:51.429Z,7.57
2019-02-25T13:15:19.561Z,7.83
2019-02-25T13:17:48.185Z,8.10
2019-02-25T13:20:16.815Z,8.13
2019-02-25T13:22:45.377Z,7.70
2019-02-25T13:25:13.964Z,7.90
2019-02-25T13:27:42.517Z,8.13
2019-02-25T13:30:12.564Z,7.23
2019-02-25T13:32:41.188Z,7.13
2019-02-25T13:35:09.881Z,6.40
2019-02-25T13:37:38.387Z,6.47
2019-02-25T13:40:07.315Z,6.23
2019-02-25T13:42:35.863Z,6.23
2019-02-25T13:45:04.652Z,7.37
2019-02-25T13:47:33.356Z,6.40
2019-02-25T13:50:01.944Z,6.67
2019-02-25T13:52:30.354Z,6.60
2019-02-25T13:54:58.823Z,5.80
2019-02-25T13:57:27.341Z,5.97
2019-02-25T13:59:55.871Z,6.37
2019-02-25T14:02:24.447Z,7.63
2019-02-25T14:04:52.991Z,5.47
2019-02-25T14:07:21.666Z,5.63
2019-02-25T14:09:50.174Z,5.50
2019-02-25T14:12:18.590Z,5.97
2019-02-25T14:14:47.091Z,5.93
2019-02-25T14:17:15.667Z,6.40
2019-02-25T14:19:44.375Z,6.53
2019-02-25T14:22:14.838Z,6.57
2019-02-25T14:24:43.242Z,6.80
2019-02-25T14:27:11.916Z,6.70
2019-02-25T14:29:40.460Z,6.77
2019-02-25T14:32:10.913Z,7.17
2019-02-25T14:34:39.687Z,6.50
2019-02-25T14:37:08.940Z,6.80
2019-02-25T14:39:38.181Z,6.20
2019-02-25T14:42:09.317Z,7.03
2019-02-25T14:44:40.597Z,6.13
2019-02-25T14:47:19.680Z,6.80
2019-02-25T14:49:40.326Z,6.23
2019-02-25T14:52:09.346Z,6.27
2019-02-25T14:54:38.073Z,6.60
2019-02-25T14:57:06.568Z,6.17
2019-02-25T14:59:35.059Z,6.40
2019-02-25T15:02:04.092Z,7.43
2019-02-25T15:04:35.812Z,6.93
2019-02-25T15:07:06.217Z,7.27
2019-02-25T15:09:34.759Z,6.63
2019-02-25T15:12:06.419Z,6.97
2019-02-25T15:14:34.575Z,7.70
2019-02-25T15:17:03.852Z,7.63
2019-02-25T15:19:34.495Z,7.23
2019-02-25T15:22:03.456Z,7.73
2019-02-25T15:24:32.831Z,7.80
2019-02-25T15:27:02.460Z,7.17
2019-02-25T15:29:39.235Z,7.23
2019-02-25T15:32:07.953Z,6.83
2019-02-25T15:34:37.713Z,6.53
2019-02-25T15:37:07.178Z,7.87
2019-02-25T15:39:36.403Z,7.43
2019-02-25T15:42:04.894Z,7.97
2019-02-25T15:44:33.585Z,7.77
2019-02-25T15:47:02.550Z,7.40
2019-02-25T15:49:32.215Z,7.97
2019-02-25T15:52:00.751Z,7.97
2019-02-25T15:54:32.695Z,7.57
2019-02-25T15:56:59.501Z,7.43
2019-02-25T15:59:32.028Z,7.73
2019-02-25T16:01:58.420Z,7.60
2019-02-25T16:04:27.951Z,8.00
2019-02-25T16:06:57.611Z,7.70
2019-02-25T16:09:27.625Z,7.23
2019-02-25T16:11:58.880Z,7.60
2019-02-25T16:14:29.350Z,7.93
2019-02-25T16:16:57.972Z,7.80
2019-02-25T16:19:38.790Z,7.03
2019-02-25T16:21:58.411Z,7.67
2019-02-25T16:24:26.985Z,7.63
2019-02-25T16:26:56.261Z,7.97
2019-02-25T16:29:25.680Z,7.90
2019-02-25T16:31:55.201Z,7.63
2019-02-25T16:34:24.459Z,7.50
2019-02-25T16:36:53.773Z,7.93
2019-02-25T16:39:23.127Z,7.40
2019-02-25T16:41:51.687Z,7.40
2019-02-25T16:44:20.083Z,7.13
2019-02-25T16:46:50.629Z,7.70
2019-02-25T16:49:18.839Z,7.17
2019-02-25T16:51:47.319Z,6.87
2019-02-25T16:54:18.903Z,7.30
2019-02-25T16:56:45.999Z,6.93
2019-02-25T16:59:15.733Z,7.63
2019-02-25T17:01:45.015Z,7.33
2019-02-25T17:04:14.362Z,7.40
2019-02-25T17:06:43.682Z,7.33
2019-02-25T17:09:16.089Z,6.63
2019-02-25T17:11:46.057Z,7.33
2019-02-25T17:14:15.318Z,6.90
2019-02-25T17:16:44.975Z,6.73
2019-02-25T17:19:13.443Z,7.40
2019-02-25T17:21:43.330Z,7.23
2019-02-25T17:24:12.201Z,8.40
2019-02-25T17:26:40.784Z,7.83
2019-02-25T17:29:09.298Z,6.90
2019-02-25T17:31:38.669Z,7.27
2019-02-25T17:34:09.942Z,7.33
2019-02-25T17:36:38.335Z,7.93
2019-02-25T17:39:08.564Z,9.63
2019-02-25T17:41:37.853Z,9.17
2019-02-25T17:44:08.078Z,8.17
2019-02-25T17:46:39.111Z,7.83
2019-02-25T17:49:09.898Z,6.90
2019-02-25T17:51:38.378Z,7.23
2019-02-25T17:54:07.937Z,8.98
2019-02-25T17:56:37.063Z,7.97
2019-02-25T17:59:07.456Z,7.77
2019-02-25T18:01:36.109Z,7.97
2019-02-25T18:04:06.589Z,7.43
2019-02-25T18:06:36.278Z,7.83
2019-02-25T18:09:07.519Z,7.70
2019-02-25T18:11:36.906Z,8.77
2019-02-25T18:14:06.211Z,7.80
2019-02-25T18:16:35.356Z,7.87
2019-02-25T18:19:05.047Z,8.37
2019-02-25T18:21:34.007Z,8.33
2019-02-25T18:24:02.652Z,8.27
2019-02-25T18:26:31.508Z,9.27
2019-02-25T18:29:00.169Z,8.00
2019-02-25T18:31:28.843Z,7.77
2019-02-25T18:33:57.436Z,8.57
2019-02-25T18:36:27.017Z,9.43
2019-02-25T18:38:56.413Z,8.40
2019-02-25T18:41:25.394Z,9.23
2019-02-25T18:43:55.203Z,10.32
2019-02-25T18:46:25.109Z,9.63
2019-02-25T18:48:54.015Z,8.83
2019-02-25T18:51:24.648Z,8.80
2019-02-25T18:53:54.721Z,9.60
2019-02-25T18:56:23.321Z,9.67
2019-02-25T18:58:55.013Z,21.53
2019-02-25T19:01:22.635Z,11.07
2019-02-25T19:03:52.674Z,11.60
2019-02-25T19:06:23.106Z,11.03
2019-02-25T19:08:53.459Z,11.40
2019-02-25T19:11:23.595Z,11.33
2019-02-25T19:13:53.998Z,11.07
2019-02-25T19:16:24.320Z,11.17
2019-02-25T19:18:53.176Z,10.73
2019-02-25T19:21:23.321Z,10.83
2019-02-25T19:23:52.082Z,13.37
2019-02-25T19:26:21.917Z,11.43
2019-02-25T19:28:52.330Z,10.57
2019-02-25T19:31:20.866Z,10.20
2019-02-25T19:33:49.408Z,10.57
2019-02-25T19:36:19.170Z,11.17
2019-02-25T19:38:48.644Z,10.80
2019-02-25T19:41:19.979Z,11.53
2019-02-25T19:43:48.314Z,9.97
2019-02-25T19:46:16.988Z,12.17
2019-02-25T19:48:47.441Z,11.40
2019-02-25T19:51:15.703Z,11.87
2019-02-25T19:53:45.266Z,11.77
2019-02-25T19:56:14.423Z,11.17
2019-02-25T19:58:42.972Z,11.83
2019-02-25T20:01:11.339Z,13.30
2019-02-25T20:03:42.614Z,11.23
2019-02-25T20:06:13.784Z,11.93
2019-02-25T20:08:41.111Z,12.00
2019-02-25T20:11:10.037Z,11.50
2019-02-25T20:13:40.587Z,11.33
2019-02-25T20:16:13.298Z,12.17
2019-02-25T20:18:40.289Z,12.90
2019-02-25T20:21:09.456Z,11.70
2019-02-25T20:23:37.809Z,11.53
2019-02-25T20:26:06.267Z,11.73
2019-02-25T20:28:34.779Z,12.77
2019-02-25T20:31:03.355Z,13.00
2019-02-25T20:33:33.088Z,12.13
2019-02-25T20:36:03.311Z,12.10
2019-02-25T20:38:32.654Z,13.30
2019-02-25T20:41:02.500Z,12.07
2019-02-25T20:43:32.515Z,11.40
2019-02-25T20:46:03.273Z,13.03
2019-02-25T20:48:31.263Z,12.13
2019-02-25T20:51:02.094Z,16.97
2019-02-25T20:53:31.677Z,21.30
2019-02-25T20:56:00.423Z,16.63
2019-02-25T20:58:28.842Z,18.03
2019-02-25T21:00:57.323Z,19.83
2019-02-25T21:03:27.543Z,20.87
2019-02-25T21:05:55.937Z,23.40
2019-02-25T21:08:24.397Z,24.00
2019-02-25T21:10:52.947Z,22.03
2019-02-25T21:13:22.065Z,20.60
2019-02-25T21:15:51.445Z,16.17
2019-02-25T21:18:20.402Z,14.07
2019-02-25T21:20:51.519Z,15.23
2019-02-25T21:23:20.140Z,14.50
2019-02-25T21:25:53.478Z,14.30
2019-02-25T21:28:20.989Z,15.30
2019-02-25T21:30:50.738Z,14.57
2019-02-25T21:33:19.870Z,15.83
2019-02-25T21:35:49.315Z,16.63
2019-02-25T21:38:19.442Z,15.50
2019-02-25T21:40:48.435Z,15.10
2019-02-25T21:43:18.777Z,15.70
2019-02-25T21:45:49.987Z,16.03
2019-02-25T21:48:21.154Z,16.13
2019-02-25T21:50:48.526Z,15.73
2019-02-25T21:53:18.392Z,14.40
2019-02-25T21:55:46.807Z,14.23
2019-02-25T21:58:18.024Z,13.47
2019-02-25T22:00:45.377Z,15.20
2019-02-25T22:03:15.693Z,13.43
2019-02-25T22:05:44.101Z,14.63
2019-02-25T22:08:12.640Z,13.40
2019-02-25T22:10:42.026Z,14.57
2019-02-25T22:13:13.580Z,13.50
2019-02-25T22:15:42.992Z,14.37
2019-02-25T22:18:13.896Z,14.43
2019-02-25T22:20:42.761Z,15.90
2019-02-25T22:23:11.872Z,14.57
2019-02-25T22:25:40.314Z,15.17
2019-02-25T22:28:09.958Z,15.57
2019-02-25T22:30:38.451Z,15.07
2019-02-25T22:33:09.429Z,14.47
2019-02-25T22:35:38.076Z,15.17
2019-02-25T22:38:07.199Z,15.70
2019-02-25T22:40:36.748Z,14.17
2019-02-25T22:43:05.736Z,15.60
2019-02-25T22:45:35.932Z,15.27
2019-02-25T22:48:04.272Z,15.10
2019-02-25T22:50:33.886Z,15.67
2019-02-25T22:53:04.259Z,15.27
2019-02-25T22:55:36.822Z,16.97
2019-02-25T22:58:03.357Z,16.03
2019-02-25T23:00:42.948Z,16.43
2019-02-25T23:03:15.299Z,16.83
2019-02-25T23:05:43.622Z,16.67
2019-02-25T23:08:13.178Z,16.00
2019-02-25T23:10:42.530Z,16.60
2019-02-25T23:13:12.091Z,15.67
2019-02-25T23:15:42.163Z,16.07
2019-02-25T23:18:13.905Z,15.93
2019-02-25T23:20:40.696Z,16.50
2019-02-25T23:23:09.139Z,16.17
2019-02-25T23:25:37.515Z,16.57
2019-02-25T23:28:06.066Z,15.63
2019-02-25T23:30:34.463Z,16.77
2019-02-25T23:33:02.891Z,15.70
2019-02-25T23:35:31.363Z,16.80
2019-02-25T23:38:00.989Z,15.03
2019-02-25T23:40:33.331Z,15.67
2019-02-25T23:43:03.000Z,15.57
2019-02-25T23:45:30.195Z,15.67
2019-02-25T23:47:59.790Z,15.63
2019-02-25T23:50:29.757Z,16.47
2019-02-25T23:52:58.979Z,15.70
2019-02-25T23:55:29.580Z,15.07
2019-02-25T23:57:57.611Z,16.20
